KCAR

Caribou Municipal Airport

Caribou, Maine, USA
METAR KCAR 140654Z AUTO 00000KT 10SM CLR M21/M23 A3042 RMK AO2 SLP322 T12061233
Observed Flight Rules
Dec-14 @ 06:54 UTC (an hour ago) Visual Flight Rules
Visibility Clouds
10 miles
  • Clear skies
Temperatures Readings
Current -21°C / -6°F
Dewpoint -23°C / -9°F
Humidity 84%
Altimeter 30.42" Hg
Pressure 1032.2 hPa
Elevation 191
METAR KCAR 140654Z AUTO 00000KT 10SM CLR M21/M23 A3042 RMK AO2 SLP322 T12061233
Observed Flight Rules
Dec-14 @ 06:54 UTC
(an hour ago)
VFR
Clouds
  • Clear skies
Temperature Dewpoint
-21°C / -6°F -23°C / -9°F
Humidity Altimeter Pressure
84% 30.42" Hg 1032.2 hPa